Time;durP1;ratioP1;P1;durP2;ratioP2;P2;SDS_P1;SDS_P2;PMS_P1;PMS_P2;Temp;Humidity;BMP_temperature;BMP_pressure;BME280_temperature;BME280_humidity;BME280_pressure;Samples;Min_cycle;Max_cycle;Signal;HPM_P1;HPM_P2
2023/08/22 00:01:43;;;;;;;;;;;;;;;;;;5075455;28;19912;-20
2023/08/22 00:04:09;;;;;;;;;;;;;;;;;;5074816;28;19920;-20
2023/08/22 00:06:35;;;;;;;;;;;;;;;;;;5074826;28;19908;-19
2023/08/22 00:09:01;;;;;;;;;;;;;;;;;;5074959;28;20293;-19
2023/08/22 00:11:27;;;;;;;;;;;;;;;;;;5074691;28;19908;-19
2023/08/22 00:13:53;;;;;;;;;;;;;;;;;;5074624;28;19927;-20
2023/08/22 00:16:19;;;;;;;;;;;;;;;;;;5074960;28;19909;-21
2023/08/22 00:18:45;;;;;;;;;;;;;;;;;;5074693;28;20047;-21
2023/08/22 00:21:11;;;;;;;;;;;;;;;;;;5075057;28;19908;-20
2023/08/22 00:23:37;;;;;;;;;;;;;;;;;;5074527;28;19919;-19
2023/08/22 00:26:03;;;;;;;;;;;;;;;;;;5074580;28;19923;-19
2023/08/22 00:28:29;;;;;;;;;;;;;;;;;;5074566;28;19998;-20
2023/08/22 00:30:55;;;;;;;;;;;;;;;;;;5074526;28;19909;-20
2023/08/22 00:33:21;;;;;;;;;;;;;;;;;;5074499;28;19908;-20
2023/08/22 00:35:47;;;;;;;;;;;;;;;;;;5074576;28;19909;-19
2023/08/22 00:38:13;;;;;;;;;;;;;;;;;;5074777;28;19919;-19
2023/08/22 00:40:39;;;;;;;;;;;;;;;;;;5074557;28;19908;-19
2023/08/22 00:43:05;;;;;;;;;;;;;;;;;;5074675;28;19909;-19
2023/08/22 00:45:31;;;;;;;;;;;;;;;;;;5074369;28;19913;-20
2023/08/22 00:47:57;;;;;;;;;;;;;;;;;;5074273;28;20039;-19
2023/08/22 00:50:23;;;;;;;;;;;;;;;;;;5074619;28;19915;-19
2023/08/22 00:52:49;;;;;;;;;;;;;;;;;;5074289;28;20323;-19
2023/08/22 00:55:15;;;;;;;;;;;;;;;;;;5074307;28;19908;-20
2023/08/22 00:57:41;;;;;;;;;;;;;;;;;;5074302;28;19927;-19
2023/08/22 01:00:10;;;;;;;;;;;;;;;;;;5074304;28;20305;-20
2023/08/22 01:02:36;;;;;;;;;;;;;;;;;;5074081;28;20301;-20
2023/08/22 01:05:02;;;;;;;;;;;;;;;;;;5074744;28;19912;-19
2023/08/22 01:07:28;;;;;;;;;;;;;;;;;;5074261;28;19991;-19
2023/08/22 01:09:54;;;;;;;;;;;;;;;;;;5074051;28;19967;-20
2023/08/22 01:12:20;;;;;;;;;;;;;;;;;;5074336;28;19920;-20
2023/08/22 01:14:46;;;;;;;;;;;;;;;;;;5074686;28;20208;-19
2023/08/22 01:17:12;;;;;;;;;;;;;;;;;;5074119;28;19908;-19
2023/08/22 01:19:38;;;;;;;;;;;;;;;;;;5074417;28;19920;-20
2023/08/22 01:22:05;;;;;;;;;;;;;;;;;;5056421;28;20370;-21
2023/08/22 01:24:30;;;;;;;;;;;;;;;;;;5074053;28;19913;-20
2023/08/22 01:26:56;;;;;;;;;;;;;;;;;;5074300;28;19919;-19
2023/08/22 01:29:22;;;;;;;;;;;;;;;;;;5073931;28;19923;-19
2023/08/22 01:31:48;;;;;;;;;;;;;;;;;;5074832;28;19909;-19
2023/08/22 01:34:14;;;;;;;;;;;;;;;;;;5078108;28;19908;-20
2023/08/22 01:36:40;;;;;;;;;;;;;;;;;;5077500;28;20343;-20
2023/08/22 01:39:07;;;;;;;;;;;;;;;;;;5077735;28;19916;-19
2023/08/22 01:41:33;;;;;;;;;;;;;;;;;;5077417;28;19908;-20
2023/08/22 01:43:59;;;;;;;;;;;;;;;;;;5077318;28;19920;-20
2023/08/22 01:46:25;;;;;;;;;;;;;;;;;;5077349;28;19961;-19
2023/08/22 01:48:51;;;;;;;;;;;;;;;;;;5077186;28;19919;-19
2023/08/22 01:51:17;;;;;;;;;;;;;;;;;;5077506;28;19908;-20
2023/08/22 01:53:43;;;;;;;;;;;;;;;;;;5077205;28;20298;-20
2023/08/22 01:56:09;;;;;;;;;;;;;;;;;;5077120;28;19915;-19
2023/08/22 01:58:35;;;;;;;;;;;;;;;;;;5077694;28;19963;-20
2023/08/22 02:01:01;;;;;;;;;;;;;;;;;;5059471;28;19909;-19
2023/08/22 02:03:27;;;;;;;;;;;;;;;;;;5076920;28;19924;-19
2023/08/22 02:05:54;;;;;;;;;;;;;;;;;;5076918;28;19912;-21
2023/08/22 02:08:19;;;;;;;;;;;;;;;;;;5076891;28;19913;-21
2023/08/22 02:10:45;;;;;;;;;;;;;;;;;;5076887;28;20251;-20
2023/08/22 02:13:11;;;;;;;;;;;;;;;;;;5077267;28;20327;-21
2023/08/22 02:15:37;;;;;;;;;;;;;;;;;;5076793;28;19909;-19
2023/08/22 02:18:04;;;;;;;;;;;;;;;;;;5076746;28;20348;-18
2023/08/22 02:20:30;;;;;;;;;;;;;;;;;;5076704;28;20259;-20
2023/08/22 02:22:56;;;;;;;;;;;;;;;;;;5076509;28;19908;-20
2023/08/22 02:25:22;;;;;;;;;;;;;;;;;;5076647;28;19909;-20
2023/08/22 02:27:48;;;;;;;;;;;;;;;;;;5076603;28;19909;-21
2023/08/22 02:30:14;;;;;;;;;;;;;;;;;;5076492;28;19928;-19
2023/08/22 02:32:40;;;;;;;;;;;;;;;;;;5076377;28;19909;-20
2023/08/22 02:35:06;;;;;;;;;;;;;;;;;;5076519;28;20255;-20
2023/08/22 02:37:32;;;;;;;;;;;;;;;;;;5076388;28;19919;-20
2023/08/22 02:39:58;;;;;;;;;;;;;;;;;;5076300;28;19991;-20
2023/08/22 02:42:24;;;;;;;;;;;;;;;;;;5076240;28;19962;-20
2023/08/22 02:44:50;;;;;;;;;;;;;;;;;;5075432;28;19917;-20
2023/08/22 02:47:16;;;;;;;;;;;;;;;;;;5076244;28;19915;-20
2023/08/22 02:49:42;;;;;;;;;;;;;;;;;;5076538;28;20258;-20
2023/08/22 02:52:08;;;;;;;;;;;;;;;;;;5075983;28;20014;-20
2023/08/22 02:54:34;;;;;;;;;;;;;;;;;;5076030;28;19960;-19
2023/08/22 02:57:00;;;;;;;;;;;;;;;;;;5075976;28;19916;-18
2023/08/22 02:59:26;;;;;;;;;;;;;;;;;;5075896;28;19931;-20
2023/08/22 03:01:52;;;;;;;;;;;;;;;;;;5076023;28;19966;-19
2023/08/22 03:04:18;;;;;;;;;;;;;;;;;;5075695;28;20015;-20
2023/08/22 03:06:44;;;;;;;;;;;;;;;;;;5076057;28;19919;-20
2023/08/22 03:09:10;;;;;;;;;;;;;;;;;;5075691;28;19982;-20
2023/08/22 03:11:36;;;;;;;;;;;;;;;;;;5076237;28;20357;-20
2023/08/22 03:14:01;;;;;;;;;;;;;;;;;;5076351;28;19908;-19
2023/08/22 03:16:27;;;;;;;;;;;;;;;;;;5075522;28;19999;-21
2023/08/22 03:18:54;;;;;;;;;;;;;;;;;;5075501;28;19978;-20
2023/08/22 03:21:20;;;;;;;;;;;;;;;;;;5075480;28;20347;-20
2023/08/22 03:23:46;;;;;;;;;;;;;;;;;;5075682;28;19909;-21
2023/08/22 03:26:12;;;;;;;;;;;;;;;;;;5075898;28;19908;-19
2023/08/22 03:28:38;;;;;;;;;;;;;;;;;;5075354;28;19963;-19
2023/08/22 03:31:04;;;;;;;;;;;;;;;;;;5075574;28;19912;-20
2023/08/22 03:33:30;;;;;;;;;;;;;;;;;;5075171;28;19908;-21
2023/08/22 03:35:55;;;;;;;;;;;;;;;;;;5075462;28;19969;-19
2023/08/22 03:38:21;;;;;;;;;;;;;;;;;;5075692;28;20324;-19
2023/08/22 03:40:48;;;;;;;;;;;;;;;;;;5075112;28;20434;-18
2023/08/22 03:43:14;;;;;;;;;;;;;;;;;;5074915;28;20046;-19
2023/08/22 03:45:40;;;;;;;;;;;;;;;;;;5075303;28;19948;-19
2023/08/22 03:48:06;;;;;;;;;;;;;;;;;;5074831;28;20405;-22
2023/08/22 03:50:32;;;;;;;;;;;;;;;;;;5074928;28;19908;-18
2023/08/22 03:52:58;;;;;;;;;;;;;;;;;;5075072;28;19916;-19
2023/08/22 03:55:24;;;;;;;;;;;;;;;;;;5056822;28;19999;-16
2023/08/22 03:57:50;;;;;;;;;;;;;;;;;;5074954;28;20007;-18
2023/08/22 04:00:15;;;;;;;;;;;;;;;;;;5074655;28;19966;-19
2023/08/22 04:02:41;;;;;;;;;;;;;;;;;;5074598;28;19921;-19
2023/08/22 04:05:07;;;;;;;;;;;;;;;;;;5074793;28;19955;-20
2023/08/22 04:07:33;;;;;;;;;;;;;;;;;;5074954;28;19932;-19
2023/08/22 04:09:59;;;;;;;;;;;;;;;;;;5074465;28;20389;-17
2023/08/22 04:12:25;;;;;;;;;;;;;;;;;;5074427;28;19962;-21
2023/08/22 04:14:51;;;;;;;;;;;;;;;;;;5074421;28;19909;-20
2023/08/22 04:17:17;;;;;;;;;;;;;;;;;;5074661;28;19908;-19
2023/08/22 04:19:43;;;;;;;;;;;;;;;;;;5074785;28;19908;-18
2023/08/22 04:22:09;;;;;;;;;;;;;;;;;;5074423;28;19908;-19
2023/08/22 04:24:35;;;;;;;;;;;;;;;;;;5056772;28;20338;-19
2023/08/22 04:27:01;;;;;;;;;;;;;;;;;;5074442;28;19955;-19
2023/08/22 04:29:27;;;;;;;;;;;;;;;;;;5074238;28;19916;-19
2023/08/22 04:31:53;;;;;;;;;;;;;;;;;;5074286;28;19908;-18
2023/08/22 04:34:19;;;;;;;;;;;;;;;;;;5057473;28;19963;-22
2023/08/22 04:36:45;;;;;;;;;;;;;;;;;;5074542;28;20266;-19
2023/08/22 04:39:11;;;;;;;;;;;;;;;;;;5074943;28;19996;-19
2023/08/22 04:41:37;;;;;;;;;;;;;;;;;;5074764;28;19959;-19
2023/08/22 04:44:03;;;;;;;;;;;;;;;;;;5056579;28;20221;-19
2023/08/22 04:46:29;;;;;;;;;;;;;;;;;;5074456;28;19954;-18
2023/08/22 04:48:54;;;;;;;;;;;;;;;;;;5074087;28;19913;-19
2023/08/22 04:51:20;;;;;;;;;;;;;;;;;;5074684;28;20445;-18
2023/08/22 04:53:46;;;;;;;;;;;;;;;;;;5074228;28;19908;-19
2023/08/22 04:56:12;;;;;;;;;;;;;;;;;;5074139;28;19909;-18
2023/08/22 04:58:38;;;;;;;;;;;;;;;;;;5074129;28;19915;-17
2023/08/22 05:01:04;;;;;;;;;;;;;;;;;;5074221;28;19916;-19
2023/08/22 05:03:30;;;;;;;;;;;;;;;;;;5074048;28;19932;-19
2023/08/22 05:05:56;;;;;;;;;;;;;;;;;;5074599;28;19908;-19
2023/08/22 05:08:22;;;;;;;;;;;;;;;;;;5077273;28;20028;-19
2023/08/22 05:10:48;;;;;;;;;;;;;;;;;;5077802;28;19942;-18
2023/08/22 05:13:14;;;;;;;;;;;;;;;;;;5077755;28;19923;-19
2023/08/22 05:15:40;;;;;;;;;;;;;;;;;;5077635;28;19909;-17
2023/08/22 05:18:07;;;;;;;;;;;;;;;;;;5078436;28;19908;-18
2023/08/22 05:20:33;;;;;;;;;;;;;;;;;;5077905;28;19909;-17
2023/08/22 05:22:59;;;;;;;;;;;;;;;;;;5077504;28;20254;-19
2023/08/22 05:25:25;;;;;;;;;;;;;;;;;;5077447;28;19908;-20
2023/08/22 05:27:51;;;;;;;;;;;;;;;;;;5077824;28;19991;-18
2023/08/22 05:30:17;;;;;;;;;;;;;;;;;;5059642;28;19916;-20
2023/08/22 05:32:43;;;;;;;;;;;;;;;;;;5077589;28;19939;-20
2023/08/22 05:35:09;;;;;;;;;;;;;;;;;;5077268;28;20339;-24
2023/08/22 05:37:35;;;;;;;;;;;;;;;;;;5077118;28;19909;-19
2023/08/22 05:40:02;;;;;;;;;;;;;;;;;;5077277;28;19927;-17
2023/08/22 05:42:28;;;;;;;;;;;;;;;;;;5076825;28;19908;-19
2023/08/22 05:44:54;;;;;;;;;;;;;;;;;;5076861;28;20019;-22
2023/08/22 05:47:20;;;;;;;;;;;;;;;;;;5077092;28;19908;-19
2023/08/22 05:49:46;;;;;;;;;;;;;;;;;;5059862;28;19963;-22
2023/08/22 05:52:12;;;;;;;;;;;;;;;;;;5077062;28;19909;-18
2023/08/22 05:54:38;;;;;;;;;;;;;;;;;;5077332;28;19916;-19
2023/08/22 05:57:04;;;;;;;;;;;;;;;;;;5076875;28;20308;-20
2023/08/22 05:59:30;;;;;;;;;;;;;;;;;;5078021;28;19909;-19
2023/08/22 06:01:56;;;;;;;;;;;;;;;;;;5076777;28;20007;-21
2023/08/22 06:04:22;;;;;;;;;;;;;;;;;;5076766;28;20343;-19
2023/08/22 06:06:50;;;;;;;;;;;;;;;;;;5077001;28;19916;-18
2023/08/22 06:09:16;;;;;;;;;;;;;;;;;;5076601;28;20206;-19
2023/08/22 06:11:42;;;;;;;;;;;;;;;;;;5076988;28;20003;-21
2023/08/22 06:14:07;;;;;;;;;;;;;;;;;;5075886;28;20342;-19
2023/08/22 06:16:33;;;;;;;;;;;;;;;;;;5058141;28;19951;-18
2023/08/22 06:18:59;;;;;;;;;;;;;;;;;;5075638;28;19908;-18
2023/08/22 06:21:25;;;;;;;;;;;;;;;;;;5075725;28;19946;-19
2023/08/22 06:23:51;;;;;;;;;;;;;;;;;;5075996;28;20315;-19
2023/08/22 06:26:17;;;;;;;;;;;;;;;;;;5057896;28;19908;-19
2023/08/22 06:28:43;;;;;;;;;;;;;;;;;;5075566;28;20058;-20
2023/08/22 06:31:09;;;;;;;;;;;;;;;;;;5057884;28;19919;-20
2023/08/22 06:33:35;;;;;;;;;;;;;;;;;;5075548;28;19965;-19
2023/08/22 06:36:01;;;;;;;;;;;;;;;;;;5075545;28;20228;-19
2023/08/22 06:38:27;;;;;;;;;;;;;;;;;;5076240;28;20003;-19
2023/08/22 06:40:53;;;;;;;;;;;;;;;;;;5076411;28;20001;-17
2023/08/22 06:43:19;;;;;;;;;;;;;;;;;;5075775;28;20038;-18
2023/08/22 06:45:45;;;;;;;;;;;;;;;;;;5075979;28;19908;-19
2023/08/22 06:48:11;;;;;;;;;;;;;;;;;;5075912;28;19945;-18
2023/08/22 06:50:37;;;;;;;;;;;;;;;;;;5075927;28;19921;-19
2023/08/22 06:53:03;;;;;;;;;;;;;;;;;;5076234;28;19912;-19
2023/08/22 06:55:29;;;;;;;;;;;;;;;;;;5075838;28;20323;-19
2023/08/22 06:57:55;;;;;;;;;;;;;;;;;;5075809;28;19915;-19
2023/08/22 07:00:21;;;;;;;;;;;;;;;;;;5057924;28;19908;-19
2023/08/22 07:02:47;;;;;;;;;;;;;;;;;;5057725;28;20275;-20
2023/08/22 07:05:13;;;;;;;;;;;;;;;;;;5076358;28;20004;-19
2023/08/22 07:07:39;;;;;;;;;;;;;;;;;;5075417;28;20310;-16
2023/08/22 07:10:05;;;;;;;;;;;;;;;;;;5075226;28;19912;-20
2023/08/22 07:12:31;;;;;;;;;;;;;;;;;;5075586;28;19985;-18
2023/08/22 07:14:57;;;;;;;;;;;;;;;;;;5075622;28;20374;-18
2023/08/22 07:17:23;;;;;;;;;;;;;;;;;;5075316;28;19973;-21
2023/08/22 07:19:49;;;;;;;;;;;;;;;;;;5075338;28;19909;-19
2023/08/22 07:22:15;;;;;;;;;;;;;;;;;;5057392;28;19963;-23
2023/08/22 07:24:41;;;;;;;;;;;;;;;;;;5075259;28;19935;-20
2023/08/22 07:27:07;;;;;;;;;;;;;;;;;;5057602;28;19944;-20
2023/08/22 07:29:33;;;;;;;;;;;;;;;;;;5074548;28;19913;-19
2023/08/22 07:31:59;;;;;;;;;;;;;;;;;;5075664;28;19909;-18
2023/08/22 07:34:25;;;;;;;;;;;;;;;;;;5057774;28;20235;-19
2023/08/22 07:36:51;;;;;;;;;;;;;;;;;;5075261;28;20003;-19
2023/08/22 07:39:18;;;;;;;;;;;;;;;;;;5075069;28;20291;-18
2023/08/22 07:41:44;;;;;;;;;;;;;;;;;;5075437;28;20266;-17
2023/08/22 07:44:09;;;;;;;;;;;;;;;;;;5075209;28;19991;-23
2023/08/22 07:46:35;;;;;;;;;;;;;;;;;;5074837;28;20301;-21
2023/08/22 07:49:01;;;;;;;;;;;;;;;;;;5074716;28;20266;-20
2023/08/22 07:51:27;;;;;;;;;;;;;;;;;;5074929;28;19923;-20
2023/08/22 07:53:53;;;;;;;;;;;;;;;;;;5074624;28;20279;-18
2023/08/22 07:56:19;;;;;;;;;;;;;;;;;;5074464;28;20069;-18
2023/08/22 07:58:45;;;;;;;;;;;;;;;;;;5074678;28;19908;-20
2023/08/22 08:01:11;;;;;;;;;;;;;;;;;;5056815;28;20331;-19
2023/08/22 08:03:37;;;;;;;;;;;;;;;;;;5074553;28;19928;-19
2023/08/22 08:06:04;;;;;;;;;;;;;;;;;;5074487;28;19939;-19
2023/08/22 08:08:30;;;;;;;;;;;;;;;;;;5074307;28;19913;-19
2023/08/22 08:10:56;;;;;;;;;;;;;;;;;;5075025;28;19908;-16
2023/08/22 08:13:22;;;;;;;;;;;;;;;;;;5074391;28;19915;-19
2023/08/22 08:15:48;;;;;;;;;;;;;;;;;;5074310;28;20323;-21
2023/08/22 08:18:14;;;;;;;;;;;;;;;;;;5074192;28;20377;-19
2023/08/22 08:20:40;;;;;;;;;;;;;;;;;;5074416;28;20294;-19
2023/08/22 08:23:06;;;;;;;;;;;;;;;;;;5074400;28;20257;-19
2023/08/22 08:25:32;;;;;;;;;;;;;;;;;;5074072;28;19919;-18
2023/08/22 08:27:58;;;;;;;;;;;;;;;;;;5074368;28;20378;-21
2023/08/22 08:30:24;;;;;;;;;;;;;;;;;;5074408;28;20007;-18
2023/08/22 08:32:50;;;;;;;;;;;;;;;;;;5074702;28;19954;-17
2023/08/22 08:35:16;;;;;;;;;;;;;;;;;;5074376;28;19908;-19
2023/08/22 08:37:42;;;;;;;;;;;;;;;;;;5074689;28;19923;-19
2023/08/22 08:40:08;;;;;;;;;;;;;;;;;;5074211;28;19909;-20
2023/08/22 08:42:35;;;;;;;;;;;;;;;;;;5077444;28;20351;-19
2023/08/22 08:45:02;;;;;;;;;;;;;;;;;;5077254;28;19920;-19
2023/08/22 08:47:28;;;;;;;;;;;;;;;;;;5059540;28;19924;-18
2023/08/22 08:49:54;;;;;;;;;;;;;;;;;;5077238;28;19981;-17
2023/08/22 08:52:20;;;;;;;;;;;;;;;;;;5077145;28;19908;-19
2023/08/22 08:54:46;;;;;;;;;;;;;;;;;;5059504;28;20238;-18
2023/08/22 08:57:12;;;;;;;;;;;;;;;;;;5077201;28;20255;-18
2023/08/22 08:59:38;;;;;;;;;;;;;;;;;;5077075;28;19973;-17
2023/08/22 09:02:04;;;;;;;;;;;;;;;;;;5077426;28;19912;-18
2023/08/22 09:04:30;;;;;;;;;;;;;;;;;;5076823;28;19920;-20
2023/08/22 09:06:56;;;;;;;;;;;;;;;;;;5077291;28;20366;-20
2023/08/22 09:09:24;;;;;;;;;;;;;;;;;;5076994;28;20177;-18
2023/08/22 09:11:50;;;;;;;;;;;;;;;;;;5076748;28;19909;-18
2023/08/22 09:14:16;;;;;;;;;;;;;;;;;;5076980;28;20247;-16
2023/08/22 09:16:42;;;;;;;;;;;;;;;;;;5076707;28;19938;-19
2023/08/22 09:19:08;;;;;;;;;;;;;;;;;;5076665;28;19908;-19
2023/08/22 09:21:34;;;;;;;;;;;;;;;;;;5076911;28;19913;-19
2023/08/22 09:24:00;;;;;;;;;;;;;;;;;;5077279;28;19916;-18
2023/08/22 09:26:26;;;;;;;;;;;;;;;;;;5077508;28;19934;-21
2023/08/22 09:28:52;;;;;;;;;;;;;;;;;;5077282;28;19970;-19
2023/08/22 09:31:18;;;;;;;;;;;;;;;;;;5077241;28;20397;-20
2023/08/22 09:33:44;;;;;;;;;;;;;;;;;;5077270;28;20286;-18
2023/08/22 09:36:10;;;;;;;;;;;;;;;;;;5077128;28;19908;-18
2023/08/22 09:38:36;;;;;;;;;;;;;;;;;;5077121;28;19915;-19
2023/08/22 09:41:02;;;;;;;;;;;;;;;;;;5077100;28;20063;-16
2023/08/22 09:43:28;;;;;;;;;;;;;;;;;;5077430;28;19962;-19
2023/08/22 09:45:54;;;;;;;;;;;;;;;;;;5077284;28;20066;-19
2023/08/22 09:48:20;;;;;;;;;;;;;;;;;;5077142;28;19908;-18
2023/08/22 09:50:46;;;;;;;;;;;;;;;;;;5077129;28;19908;-18
2023/08/22 09:53:12;;;;;;;;;;;;;;;;;;5076250;28;19986;-20
2023/08/22 09:55:38;;;;;;;;;;;;;;;;;;5077556;28;19912;-19
2023/08/22 09:58:04;;;;;;;;;;;;;;;;;;5076921;28;19912;-18
2023/08/22 10:00:30;;;;;;;;;;;;;;;;;;5077010;28;19909;-18
2023/08/22 10:02:56;;;;;;;;;;;;;;;;;;5076512;28;19928;-20
2023/08/22 10:05:22;;;;;;;;;;;;;;;;;;5076940;28;19909;-19
2023/08/22 10:07:48;;;;;;;;;;;;;;;;;;5076833;28;19915;-19
2023/08/22 10:10:14;;;;;;;;;;;;;;;;;;5076936;28;20288;-20
2023/08/22 10:12:40;;;;;;;;;;;;;;;;;;5076550;28;19916;-20
2023/08/22 10:15:07;;;;;;;;;;;;;;;;;;5076760;28;20398;-20
2023/08/22 10:17:33;;;;;;;;;;;;;;;;;;5059049;28;19908;-18
2023/08/22 10:19:59;;;;;;;;;;;;;;;;;;5077086;28;20333;-19
2023/08/22 10:22:25;;;;;;;;;;;;;;;;;;5076607;28;19936;-19
2023/08/22 10:24:51;;;;;;;;;;;;;;;;;;5076442;28;19909;-19
2023/08/22 10:27:17;;;;;;;;;;;;;;;;;;5076992;28;19909;-17
2023/08/22 10:29:46;;;;;;;;;;;;;;;;;;5076252;28;19935;-19
2023/08/22 10:32:12;;;;;;;;;;;;;;;;;;5058347;28;19980;-19
2023/08/22 10:34:38;;;;;;;;;;;;;;;;;;5076294;28;20015;-20
2023/08/22 10:37:04;;;;;;;;;;;;;;;;;;5076287;28;19924;-16
2023/08/22 10:39:30;;;;;;;;;;;;;;;;;;5058574;28;19908;-20
2023/08/22 10:41:57;;;;;;;;;;;;;;;;;;5076776;28;20326;-19
2023/08/22 10:44:30;;;;;;;;;;;;;;;;;;5075761;28;19908;-22
2023/08/22 10:46:55;;;;;;;;;;;;;;;;;;5058208;28;20298;-18
2023/08/22 10:49:21;;;;;;;;;;;;;;;;;;5075536;28;19977;-19
2023/08/22 10:51:47;;;;;;;;;;;;;;;;;;5075630;28;19908;-19
2023/08/22 10:54:13;;;;;;;;;;;;;;;;;;5075630;28;19908;-19
2023/08/22 10:56:39;;;;;;;;;;;;;;;;;;5075530;28;20247;-17
2023/08/22 10:59:05;;;;;;;;;;;;;;;;;;5075094;28;19908;-19
2023/08/22 11:01:31;;;;;;;;;;;;;;;;;;5074988;28;19954;-19
2023/08/22 11:03:57;;;;;;;;;;;;;;;;;;5074210;28;20258;-19
2023/08/22 11:06:24;;;;;;;;;;;;;;;;;;5074710;28;20078;-19
2023/08/22 11:08:50;;;;;;;;;;;;;;;;;;5075250;28;19912;-17
2023/08/22 11:11:16;;;;;;;;;;;;;;;;;;5074791;28;19908;-18
2023/08/22 11:13:42;;;;;;;;;;;;;;;;;;5074612;28;19983;-19
2023/08/22 11:16:08;;;;;;;;;;;;;;;;;;5057005;28;19926;-18
2023/08/22 11:18:34;;;;;;;;;;;;;;;;;;5074805;28;19933;-19
2023/08/22 11:21:01;;;;;;;;;;;;;;;;;;5075198;28;20053;-17
2023/08/22 11:23:27;;;;;;;;;;;;;;;;;;5075084;28;19955;-20
2023/08/22 11:26:02;;;;;;;;;;;;;;;;;;5009424;28;19924;-19
2023/08/22 11:28:28;;;;;;;;;;;;;;;;;;5008707;28;19932;-20
2023/08/22 11:30:54;;;;;;;;;;;;;;;;;;5008969;28;19920;-18
2023/08/22 11:33:20;;;;;;;;;;;;;;;;;;5008220;28;20009;-19
2023/08/22 11:35:46;;;;;;;;;;;;;;;;;;5008224;28;20296;-20
2023/08/22 11:38:12;;;;;;;;;;;;;;;;;;5008575;28;20029;-17
2023/08/22 11:40:38;;;;;;;;;;;;;;;;;;5008310;28;19910;-19
2023/08/22 11:43:04;;;;;;;;;;;;;;;;;;5008448;28;20364;-19
2023/08/22 11:45:31;;;;;;;;;;;;;;;;;;5008539;28;19929;-16
2023/08/22 11:47:57;;;;;;;;;;;;;;;;;;5008358;28;20315;-23
2023/08/22 11:50:23;;;;;;;;;;;;;;;;;;5009023;28;19913;-21
2023/08/22 11:52:49;;;;;;;;;;;;;;;;;;5008204;28;19920;-18
2023/08/22 11:55:16;;;;;;;;;;;;;;;;;;5008444;28;19925;-19
2023/08/22 11:57:41;;;;;;;;;;;;;;;;;;5008455;28;19910;-20
2023/08/22 12:00:08;;;;;;;;;;;;;;;;;;5008732;28;20316;-20
2023/08/22 12:02:34;;;;;;;;;;;;;;;;;;5008273;28;19909;-19
2023/08/22 12:05:00;;;;;;;;;;;;;;;;;;5008097;28;20256;-18
2023/08/22 12:07:26;;;;;;;;;;;;;;;;;;5008156;28;19910;-17
2023/08/22 12:09:52;;;;;;;;;;;;;;;;;;5008449;28;20001;-22
2023/08/22 12:12:18;;;;;;;;;;;;;;;;;;5008212;28;19909;-18
2023/08/22 12:14:44;;;;;;;;;;;;;;;;;;5007977;28;20233;-16
2023/08/22 12:17:10;;;;;;;;;;;;;;;;;;5008285;28;19909;-17
2023/08/22 12:19:36;;;;;;;;;;;;;;;;;;5008222;28;19917;-18
2023/08/22 12:22:02;;;;;;;;;;;;;;;;;;5007804;28;19959;-19
2023/08/22 12:24:28;;;;;;;;;;;;;;;;;;5014989;28;19944;-18
2023/08/22 12:26:54;;;;;;;;;;;;;;;;;;5026509;28;20341;-20
2023/08/22 12:29:20;;;;;;;;;;;;;;;;;;5026440;28;19921;-21
2023/08/22 12:31:46;;;;;;;;;;;;;;;;;;5027559;28;19909;-20
2023/08/22 12:34:13;;;;;;;;;;;;;;;;;;5027549;28;19913;-16
2023/08/22 12:36:39;;;;;;;;;;;;;;;;;;5018325;28;20007;-18
2023/08/22 12:39:05;;;;;;;;;;;;;;;;;;5014009;28;19953;-20
2023/08/22 12:41:31;;;;;;;;;;;;;;;;;;5014378;28;19920;-19
2023/08/22 12:43:57;;;;;;;;;;;;;;;;;;5014024;28;20057;-18
2023/08/22 12:46:23;;;;;;;;;;;;;;;;;;5014424;28;19913;-25
2023/08/22 12:48:49;;;;;;;;;;;;;;;;;;5013907;28;20001;-20
2023/08/22 12:51:15;;;;;;;;;;;;;;;;;;5013912;28;19993;-19
2023/08/22 12:53:41;;;;;;;;;;;;;;;;;;5013915;28;19945;-19
2023/08/22 12:56:07;;;;;;;;;;;;;;;;;;5014118;28;19910;-19
2023/08/22 12:58:34;;;;;;;;;;;;;;;;;;5013856;28;20355;-19
2023/08/22 13:01:00;;;;;;;;;;;;;;;;;;5013751;28;19969;-19
2023/08/22 13:03:26;;;;;;;;;;;;;;;;;;5012687;28;19970;-19
2023/08/22 13:05:52;;;;;;;;;;;;;;;;;;5014135;28;19913;-20
2023/08/22 13:08:18;;;;;;;;;;;;;;;;;;5014208;28;20004;-19
2023/08/22 13:10:44;;;;;;;;;;;;;;;;;;5014140;28;20371;-21
2023/08/22 13:13:10;;;;;;;;;;;;;;;;;;5013866;28;20313;-17
2023/08/22 13:15:36;;;;;;;;;;;;;;;;;;5012797;28;19974;-19
2023/08/22 13:18:02;;;;;;;;;;;;;;;;;;5013836;28;19916;-18
2023/08/22 13:20:28;;;;;;;;;;;;;;;;;;5013616;28;19913;-19
2023/08/22 13:22:53;;;;;;;;;;;;;;;;;;5013604;28;20248;-19
2023/08/22 13:25:19;;;;;;;;;;;;;;;;;;5013429;28;20309;-17
2023/08/22 13:27:45;;;;;;;;;;;;;;;;;;5013472;28;20311;-20
2023/08/22 13:30:11;;;;;;;;;;;;;;;;;;5013724;28;19909;-20
2023/08/22 13:32:37;;;;;;;;;;;;;;;;;;5013280;28;19909;-20
2023/08/22 13:35:03;;;;;;;;;;;;;;;;;;5013289;28;20319;-20
2023/08/22 13:37:33;;;;;;;;;;;;;;;;;;5013338;28;19909;-19
2023/08/22 13:40:00;;;;;;;;;;;;;;;;;;5013497;28;20029;-19
2023/08/22 13:42:26;;;;;;;;;;;;;;;;;;5013120;28;19909;-19
2023/08/22 13:44:52;;;;;;;;;;;;;;;;;;5013643;28;20232;-19
2023/08/22 13:47:18;;;;;;;;;;;;;;;;;;5012526;28;19917;-18
2023/08/22 13:49:44;;;;;;;;;;;;;;;;;;5013027;28;19921;-19
2023/08/22 13:52:10;;;;;;;;;;;;;;;;;;5013264;28;19920;-19
2023/08/22 13:54:36;;;;;;;;;;;;;;;;;;5013292;28;19917;-19
2023/08/22 13:57:03;;;;;;;;;;;;;;;;;;5013314;28;19909;-19
2023/08/22 13:59:29;;;;;;;;;;;;;;;;;;5013593;28;19989;-19
2023/08/22 14:01:55;;;;;;;;;;;;;;;;;;5013402;28;19948;-18
2023/08/22 14:04:21;;;;;;;;;;;;;;;;;;5013165;28;20408;-19
2023/08/22 14:06:47;;;;;;;;;;;;;;;;;;5013120;28;20012;-19
2023/08/22 14:09:13;;;;;;;;;;;;;;;;;;5012030;28;19913;-17
2023/08/22 14:11:39;;;;;;;;;;;;;;;;;;5012858;28;20323;-19
2023/08/22 14:14:05;;;;;;;;;;;;;;;;;;5012886;28;19910;-18
2023/08/22 14:16:31;;;;;;;;;;;;;;;;;;5012721;28;19962;-21
2023/08/22 14:18:57;;;;;;;;;;;;;;;;;;5012947;28;19909;-20
2023/08/22 14:21:23;;;;;;;;;;;;;;;;;;5011512;28;19921;-21
2023/08/22 14:23:49;;;;;;;;;;;;;;;;;;5012317;28;19913;-19
2023/08/22 14:26:15;;;;;;;;;;;;;;;;;;5012753;28;19909;-18
2023/08/22 14:28:41;;;;;;;;;;;;;;;;;;5012435;28;20444;-19
2023/08/22 14:31:07;;;;;;;;;;;;;;;;;;5012554;28;20370;-18
2023/08/22 14:33:33;;;;;;;;;;;;;;;;;;5012521;28;19913;-20
2023/08/22 14:35:59;;;;;;;;;;;;;;;;;;5012449;28;19918;-20
2023/08/22 14:38:25;;;;;;;;;;;;;;;;;;5013106;28;19920;-20
2023/08/22 14:40:51;;;;;;;;;;;;;;;;;;5012653;28;19909;-19
2023/08/22 14:43:16;;;;;;;;;;;;;;;;;;5012579;28;19921;-20
2023/08/22 14:45:42;;;;;;;;;;;;;;;;;;5012307;28;19917;-19
2023/08/22 14:48:08;;;;;;;;;;;;;;;;;;5012372;28;19910;-19
2023/08/22 14:50:34;;;;;;;;;;;;;;;;;;5012801;28;19917;-17
2023/08/22 14:53:00;;;;;;;;;;;;;;;;;;5012253;28;19969;-18
2023/08/22 14:55:26;;;;;;;;;;;;;;;;;;5012438;28;19910;-19
2023/08/22 14:57:52;;;;;;;;;;;;;;;;;;5012242;28;19913;-20
2023/08/22 15:00:18;;;;;;;;;;;;;;;;;;5011882;28;19910;-20
2023/08/22 15:02:44;;;;;;;;;;;;;;;;;;5012233;28;19910;-19
2023/08/22 15:05:10;;;;;;;;;;;;;;;;;;5012149;28;19960;-19
2023/08/22 15:07:36;;;;;;;;;;;;;;;;;;5012128;28;19966;-19
2023/08/22 15:10:03;;;;;;;;;;;;;;;;;;5012138;28;19921;-17
2023/08/22 15:12:29;;;;;;;;;;;;;;;;;;5011731;28;19909;-20
2023/08/22 15:14:55;;;;;;;;;;;;;;;;;;5011682;28;19917;-19
2023/08/22 15:17:21;;;;;;;;;;;;;;;;;;5011743;28;19970;-20
2023/08/22 15:19:47;;;;;;;;;;;;;;;;;;5010906;28;20310;-18
2023/08/22 15:22:13;;;;;;;;;;;;;;;;;;5011501;28;19916;-21
2023/08/22 15:24:39;;;;;;;;;;;;;;;;;;5011588;28;19929;-19
2023/08/22 15:27:05;;;;;;;;;;;;;;;;;;5011400;28;19910;-19
2023/08/22 15:29:31;;;;;;;;;;;;;;;;;;5011740;28;19981;-21
2023/08/22 15:31:57;;;;;;;;;;;;;;;;;;5011356;28;19962;-20
2023/08/22 15:34:24;;;;;;;;;;;;;;;;;;5011650;28;20251;-17
2023/08/22 15:36:50;;;;;;;;;;;;;;;;;;5011813;28;19924;-20
2023/08/22 15:39:16;;;;;;;;;;;;;;;;;;5011586;28;19910;-18
2023/08/22 15:41:42;;;;;;;;;;;;;;;;;;5011461;28;19932;-17
2023/08/22 15:44:07;;;;;;;;;;;;;;;;;;5010640;28;20298;-19
2023/08/22 15:46:33;;;;;;;;;;;;;;;;;;5011799;28;19920;-19
2023/08/22 15:48:59;;;;;;;;;;;;;;;;;;5011811;28;19918;-20
2023/08/22 15:51:25;;;;;;;;;;;;;;;;;;5011922;28;20240;-19
2023/08/22 15:53:51;;;;;;;;;;;;;;;;;;5011557;28;19917;-19
2023/08/22 15:56:17;;;;;;;;;;;;;;;;;;5011510;28;20229;-21
2023/08/22 15:58:43;;;;;;;;;;;;;;;;;;5011647;28;19963;-19
2023/08/22 16:01:09;;;;;;;;;;;;;;;;;;5011493;28;19944;-17
2023/08/22 16:03:35;;;;;;;;;;;;;;;;;;5011353;28;19910;-20
2023/08/22 16:06:01;;;;;;;;;;;;;;;;;;5011562;28;19973;-19
2023/08/22 16:08:27;;;;;;;;;;;;;;;;;;5011675;28;20020;-20
2023/08/22 16:10:54;;;;;;;;;;;;;;;;;;5011973;28;19958;-19
2023/08/22 16:13:19;;;;;;;;;;;;;;;;;;5014794;28;19970;-18
2023/08/22 16:15:45;;;;;;;;;;;;;;;;;;5014815;28;19910;-20
2023/08/22 16:18:11;;;;;;;;;;;;;;;;;;5015220;28;19910;-18
2023/08/22 16:20:37;;;;;;;;;;;;;;;;;;5015207;28;19910;-19
2023/08/22 16:23:03;;;;;;;;;;;;;;;;;;5014588;28;19916;-19
2023/08/22 16:25:29;;;;;;;;;;;;;;;;;;5013321;28;19928;-19
2023/08/22 16:27:55;;;;;;;;;;;;;;;;;;5015026;28;19910;-17
2023/08/22 16:30:22;;;;;;;;;;;;;;;;;;5015070;28;19909;-18
2023/08/22 16:32:48;;;;;;;;;;;;;;;;;;5014201;28;20328;-20
2023/08/22 16:35:14;;;;;;;;;;;;;;;;;;5015183;28;19917;-20
2023/08/22 16:37:40;;;;;;;;;;;;;;;;;;5014510;28;19909;-19